Ana Sayfa
METAR-TAF:

METAR-TAF

Havaalanları :

Council Bluffs, Iowa, Amerika Birleşik Devletleri

Enlem: 41-16N, Boylam: 095-46W, yükseklik: 382 m

Güncel hava durumu gözlemi

Rapor saat 04:55 UTC de 30 dakika önce yapıldı.
Rüzgar kuzeydan 7 kt
Sıcaklık 18°C
Nem 52%
Basınç 1015 hPa
Görüş mesafesi: 14.5 km
Açık gökyüzü

METAR: KCBF 190455Z AUTO 01007KT 9SM CLR 18/08 A2996 RMK AO2

Saat: 00:25 (05:25 UTC)


TAF: eksik

4.000'den fazla havaalanı için hava durumu gözlemleri ve tahminleri (METAR ve TAF raporları).

Kullanılabilir istasyonlar harita üzerinde sarı ve kırmızı noktalarla gösterilir.

İstasyonun adını görmek için fareyi noktanın üzerinde gezdirin.

Sonrasında hava gözlem ve tahminlerini görmek için tıklayın.

Haritayı değiştirmek için: yaklaştırmak için siyah artı işaretli yeşil düğmeye ve uzaklaştırmak için de eksi işaretli düğmeye hızla tıklayın; bitişik haritalar için yeşil okları kullanın.


METAR-TAF: